Etusivu
METAR-TAF:

METAR-TAF

Lentoasemat :

Mitchell, Etelä-Dakota, Yhdysvallat

Leveyspiiri: 43-46N, Pituuspiiri: 098-02W, korkeus merenpinnasta: 397 m

Tämänhetkinen sää

Tämä raportti tehtiin 1 tunti ja 4 minuuttia sitten, kello 11.53 UTC
Tuuli 14 kn pohjoisesta
Lämpötila 9°C
Kosteus 76%
Ilmanpaine 1011 hPa
Näkyvyys: 16.1 km
Pilvistä 10000 ft:n korkeudessa

METAR: KMHE 081153Z AUTO 36014KT 10SM OVC100 09/05 A2986 RMK AO2 SLP109 60000 T00940050 10111 20078 53022

Aika: 07:57 (12:57 UTC)


TAF: puuttuu

Säähavainnot ja -ennusteet yli 4000 lentoasemalta (METAR- ja TAF-raportit).

Käytössä olevat sääasemat on merkitty karttaan keltaisilla ja punaisilla pisteillä.

Aseta hiiri pisteen päälle nähdäksesi sääaseman nimen.

Klikkaa sitten nähdäksesi säähavainnot ja -ennusteet.

Kartan vaihtaminen: klikkaa mustalla rastilla varustettuja vihreitä pisteitä, niin voit zoomata sisään; viivalla varustettua vihreää pistettä, niin voit zoomata ulos tai vihreitä nuolia, niin pääset viereisille kartoille.


METAR-TAF: